sensor_id;sensor_type;location;lat;lon;timestamp;P1;durP1;ratioP1;P2;durP2;ratioP2
53618;SDS011;68717;53.040;18.488;2024-03-22T00:00:08;36.25;;;20.92;;
53618;SDS011;68717;53.040;18.488;2024-03-22T00:00:42;36.42;;;21.10;;
53618;SDS011;68717;53.040;18.488;2024-03-22T00:01:15;34.28;;;20.85;;
53618;SDS011;68717;53.040;18.488;2024-03-22T00:01:27;35.13;;;20.27;;
53618;SDS011;68717;53.040;18.488;2024-03-22T00:01:39;37.00;;;20.45;;
53618;SDS011;68717;53.040;18.488;2024-03-22T00:01:50;36.22;;;20.90;;
53618;SDS011;68717;53.040;18.488;2024-03-22T00:02:03;36.38;;;20.92;;
53618;SDS011;68717;53.040;18.488;2024-03-22T00:02:15;36.05;;;20.73;;
53618;SDS011;68717;53.040;18.488;2024-03-22T00:02:27;39.08;;;20.65;;
53618;SDS011;68717;53.040;18.488;2024-03-22T00:02:39;38.97;;;20.92;;
53618;SDS011;68717;53.040;18.488;2024-03-22T00:02:51;37.25;;;20.90;;
53618;SDS011;68717;53.040;18.488;2024-03-22T00:03:03;36.42;;;21.15;;
53618;SDS011;68717;53.040;18.488;2024-03-22T00:03:15;37.40;;;21.10;;
53618;SDS011;68717;53.040;18.488;2024-03-22T00:03:27;36.80;;;20.77;;
53618;SDS011;68717;53.040;18.488;2024-03-22T00:03:43;35.20;;;20.30;;
53618;SDS011;68717;53.040;18.488;2024-03-22T00:03:56;35.63;;;20.50;;
53618;SDS011;68717;53.040;18.488;2024-03-22T00:04:08;35.13;;;20.75;;
53618;SDS011;68717;53.040;18.488;2024-03-22T00:04:20;35.10;;;20.88;;
53618;SDS011;68717;53.040;18.488;2024-03-22T00:04:32;35.47;;;20.65;;
53618;SDS011;68717;53.040;18.488;2024-03-22T00:04:44;36.35;;;20.05;;
53618;SDS011;68717;53.040;18.488;2024-03-22T00:04:56;34.97;;;19.83;;
53618;SDS011;68717;53.040;18.488;2024-03-22T00:05:08;34.63;;;20.00;;
53618;SDS011;68717;53.040;18.488;2024-03-22T00:05:20;35.35;;;20.20;;
53618;SDS011;68717;53.040;18.488;2024-03-22T00:05:33;36.53;;;20.42;;
53618;SDS011;68717;53.040;18.488;2024-03-22T00:05:45;34.45;;;19.95;;
53618;SDS011;68717;53.040;18.488;2024-03-22T00:05:57;32.58;;;19.42;;
53618;SDS011;68717;53.040;18.488;2024-03-22T00:06:08;33.10;;;19.67;;
53618;SDS011;68717;53.040;18.488;2024-03-22T00:06:20;34.97;;;20.45;;
53618;SDS011;68717;53.040;18.488;2024-03-22T00:06:32;35.88;;;20.48;;
53618;SDS011;68717;53.040;18.488;2024-03-22T00:06:45;36.00;;;20.67;;
53618;SDS011;68717;53.040;18.488;2024-03-22T00:06:58;36.33;;;20.42;;
53618;SDS011;68717;53.040;18.488;2024-03-22T00:07:10;36.03;;;20.27;;
53618;SDS011;68717;53.040;18.488;2024-03-22T00:07:22;36.65;;;20.63;;
53618;SDS011;68717;53.040;18.488;2024-03-22T00:07:34;36.65;;;21.02;;
53618;SDS011;68717;53.040;18.488;2024-03-22T00:07:47;34.53;;;20.25;;
53618;SDS011;68717;53.040;18.488;2024-03-22T00:07:59;33.70;;;19.88;;
53618;SDS011;68717;53.040;18.488;2024-03-22T00:08:11;35.22;;;20.20;;
53618;SDS011;68717;53.040;18.488;2024-03-22T00:08:23;35.13;;;20.52;;
53618;SDS011;68717;53.040;18.488;2024-03-22T00:08:36;35.20;;;20.30;;
53618;SDS011;68717;53.040;18.488;2024-03-22T00:08:47;34.60;;;20.63;;
53618;SDS011;68717;53.040;18.488;2024-03-22T00:08:59;34.55;;;20.67;;
53618;SDS011;68717;53.040;18.488;2024-03-22T00:09:11;33.80;;;20.15;;
53618;SDS011;68717;53.040;18.488;2024-03-22T00:09:23;32.90;;;19.77;;
53618;SDS011;68717;53.040;18.488;2024-03-22T00:09:35;33.42;;;19.92;;
53618;SDS011;68717;53.040;18.488;2024-03-22T00:09:47;35.05;;;20.45;;
53618;SDS011;68717;53.040;18.488;2024-03-22T00:09:59;36.35;;;20.65;;
53618;SDS011;68717;53.040;18.488;2024-03-22T00:10:11;36.60;;;20.75;;
53618;SDS011;68717;53.040;18.488;2024-03-22T00:10:23;36.15;;;20.60;;
53618;SDS011;68717;53.040;18.488;2024-03-22T00:10:35;33.95;;;20.25;;
53618;SDS011;68717;53.040;18.488;2024-03-22T00:10:47;33.47;;;20.17;;
53618;SDS011;68717;53.040;18.488;2024-03-22T00:10:59;33.80;;;20.25;;
53618;SDS011;68717;53.040;18.488;2024-03-22T00:11:12;35.17;;;20.20;;
53618;SDS011;68717;53.040;18.488;2024-03-22T00:11:24;33.92;;;19.90;;
53618;SDS011;68717;53.040;18.488;2024-03-22T00:11:36;33.42;;;19.95;;
53618;SDS011;68717;53.040;18.488;2024-03-22T00:11:48;33.17;;;19.90;;
53618;SDS011;68717;53.040;18.488;2024-03-22T00:12:00;33.38;;;19.67;;
53618;SDS011;68717;53.040;18.488;2024-03-22T00:12:12;32.35;;;19.40;;
53618;SDS011;68717;53.040;18.488;2024-03-22T00:12:25;31.52;;;19.70;;
53618;SDS011;68717;53.040;18.488;2024-03-22T00:12:37;34.55;;;20.15;;
53618;SDS011;68717;53.040;18.488;2024-03-22T00:12:48;36.63;;;20.00;;
53618;SDS011;68717;53.040;18.488;2024-03-22T00:13:00;36.45;;;19.95;;
53618;SDS011;68717;53.040;18.488;2024-03-22T00:13:12;34.45;;;19.95;;
53618;SDS011;68717;53.040;18.488;2024-03-22T00:13:24;34.10;;;19.95;;
53618;SDS011;68717;53.040;18.488;2024-03-22T00:13:36;32.28;;;19.20;;
53618;SDS011;68717;53.040;18.488;2024-03-22T00:13:48;33.40;;;19.45;;
53618;SDS011;68717;53.040;18.488;2024-03-22T00:14:00;33.33;;;19.67;;
53618;SDS011;68717;53.040;18.488;2024-03-22T00:14:12;33.95;;;20.02;;
53618;SDS011;68717;53.040;18.488;2024-03-22T00:14:24;32.90;;;20.13;;
53618;SDS011;68717;53.040;18.488;2024-03-22T00:14:36;31.65;;;19.95;;
53618;SDS011;68717;53.040;18.488;2024-03-22T00:14:52;31.05;;;19.15;;
53618;SDS011;68717;53.040;18.488;2024-03-22T00:15:07;32.38;;;19.05;;
53618;SDS011;68717;53.040;18.488;2024-03-22T00:15:19;35.22;;;19.33;;
53618;SDS011;68717;53.040;18.488;2024-03-22T00:15:31;36.42;;;19.55;;
53618;SDS011;68717;53.040;18.488;2024-03-22T00:15:43;35.80;;;20.08;;
53618;SDS011;68717;53.040;18.488;2024-03-22T00:15:56;33.85;;;19.73;;
53618;SDS011;68717;53.040;18.488;2024-03-22T00:16:09;32.38;;;19.42;;
53618;SDS011;68717;53.040;18.488;2024-03-22T00:16:22;33.30;;;19.88;;
53618;SDS011;68717;53.040;18.488;2024-03-22T00:16:33;35.53;;;20.38;;
53618;SDS011;68717;53.040;18.488;2024-03-22T00:16:46;34.67;;;19.85;;
53618;SDS011;68717;53.040;18.488;2024-03-22T00:16:58;34.00;;;19.83;;
53618;SDS011;68717;53.040;18.488;2024-03-22T00:17:09;34.10;;;19.75;;
53618;SDS011;68717;53.040;18.488;2024-03-22T00:17:21;34.00;;;19.88;;
53618;SDS011;68717;53.040;18.488;2024-03-22T00:17:33;33.45;;;20.17;;
53618;SDS011;68717;53.040;18.488;2024-03-22T00:17:45;34.22;;;20.27;;
53618;SDS011;68717;53.040;18.488;2024-03-22T00:17:57;35.80;;;20.73;;
53618;SDS011;68717;53.040;18.488;2024-03-22T00:18:09;36.15;;;20.77;;
53618;SDS011;68717;53.040;18.488;2024-03-22T00:18:21;35.45;;;20.63;;
53618;SDS011;68717;53.040;18.488;2024-03-22T00:18:33;33.63;;;20.00;;
53618;SDS011;68717;53.040;18.488;2024-03-22T00:18:45;33.75;;;19.95;;
53618;SDS011;68717;53.040;18.488;2024-03-22T00:18:57;34.53;;;20.48;;
53618;SDS011;68717;53.040;18.488;2024-03-22T00:19:09;34.30;;;20.08;;
53618;SDS011;68717;53.040;18.488;2024-03-22T00:19:22;35.15;;;19.83;;
53618;SDS011;68717;53.040;18.488;2024-03-22T00:19:34;36.20;;;20.10;;
53618;SDS011;68717;53.040;18.488;2024-03-22T00:19:46;35.47;;;20.10;;
53618;SDS011;68717;53.040;18.488;2024-03-22T00:19:58;33.08;;;19.77;;
53618;SDS011;68717;53.040;18.488;2024-03-22T00:20:11;33.15;;;20.27;;
53618;SDS011;68717;53.040;18.488;2024-03-22T00:20:23;33.22;;;20.20;;
53618;SDS011;68717;53.040;18.488;2024-03-22T00:20:35;34.05;;;19.98;;
53618;SDS011;68717;53.040;18.488;2024-03-22T00:20:47;34.65;;;19.92;;
53618;SDS011;68717;53.040;18.488;2024-03-22T00:20:59;35.20;;;20.08;;
53618;SDS011;68717;53.040;18.488;2024-03-22T00:21:13;34.65;;;19.77;;
53618;SDS011;68717;53.040;18.488;2024-03-22T00:21:25;35.13;;;20.08;;
53618;SDS011;68717;53.040;18.488;2024-03-22T00:21:37;36.03;;;20.00;;
53618;SDS011;68717;53.040;18.488;2024-03-22T00:21:49;35.72;;;19.65;;
53618;SDS011;68717;53.040;18.488;2024-03-22T00:22:01;34.88;;;19.45;;
53618;SDS011;68717;53.040;18.488;2024-03-22T00:22:13;34.08;;;19.90;;
53618;SDS011;68717;53.040;18.488;2024-03-22T00:22:26;34.40;;;20.00;;
53618;SDS011;68717;53.040;18.488;2024-03-22T00:22:37;33.13;;;19.65;;
53618;SDS011;68717;53.040;18.488;2024-03-22T00:22:49;32.88;;;19.60;;
53618;SDS011;68717;53.040;18.488;2024-03-22T00:23:02;33.78;;;19.63;;
53618;SDS011;68717;53.040;18.488;2024-03-22T00:23:14;34.80;;;19.77;;
53618;SDS011;68717;53.040;18.488;2024-03-22T00:23:25;35.55;;;20.20;;
53618;SDS011;68717;53.040;18.488;2024-03-22T00:23:37;36.20;;;20.45;;
53618;SDS011;68717;53.040;18.488;2024-03-22T00:23:49;36.15;;;20.13;;
53618;SDS011;68717;53.040;18.488;2024-03-22T00:24:01;35.25;;;19.85;;
53618;SDS011;68717;53.040;18.488;2024-03-22T00:24:13;35.60;;;20.08;;
53618;SDS011;68717;53.040;18.488;2024-03-22T00:24:25;33.25;;;19.75;;
53618;SDS011;68717;53.040;18.488;2024-03-22T00:24:37;33.15;;;19.75;;
53618;SDS011;68717;53.040;18.488;2024-03-22T00:24:50;34.13;;;19.27;;
53618;SDS011;68717;53.040;18.488;2024-03-22T00:25:01;35.22;;;19.60;;
53618;SDS011;68717;53.040;18.488;2024-03-22T00:25:13;34.97;;;20.00;;
53618;SDS011;68717;53.040;18.488;2024-03-22T00:25:25;34.17;;;19.98;;
53618;SDS011;68717;53.040;18.488;2024-03-22T00:25:37;33.85;;;20.17;;
53618;SDS011;68717;53.040;18.488;2024-03-22T00:25:49;33.10;;;19.63;;
53618;SDS011;68717;53.040;18.488;2024-03-22T00:26:01;34.30;;;19.33;;
53618;SDS011;68717;53.040;18.488;2024-03-22T00:26:13;34.08;;;19.50;;
53618;SDS011;68717;53.040;18.488;2024-03-22T00:26:25;33.75;;;20.13;;
53618;SDS011;68717;53.040;18.488;2024-03-22T00:26:38;32.58;;;19.98;;
53618;SDS011;68717;53.040;18.488;2024-03-22T00:26:50;32.60;;;19.75;;
53618;SDS011;68717;53.040;18.488;2024-03-22T00:27:02;33.72;;;19.45;;
53618;SDS011;68717;53.040;18.488;2024-03-22T00:27:14;36.03;;;19.95;;
53618;SDS011;68717;53.040;18.488;2024-03-22T00:27:26;34.85;;;20.05;;
53618;SDS011;68717;53.040;18.488;2024-03-22T00:27:38;33.47;;;19.92;;
53618;SDS011;68717;53.040;18.488;2024-03-22T00:27:49;33.70;;;19.67;;
53618;SDS011;68717;53.040;18.488;2024-03-22T00:28:01;33.30;;;19.73;;
53618;SDS011;68717;53.040;18.488;2024-03-22T00:28:14;32.22;;;19.30;;
53618;SDS011;68717;53.040;18.488;2024-03-22T00:28:26;32.47;;;19.17;;
53618;SDS011;68717;53.040;18.488;2024-03-22T00:28:38;33.47;;;19.65;;
53618;SDS011;68717;53.040;18.488;2024-03-22T00:28:50;34.08;;;20.10;;
53618;SDS011;68717;53.040;18.488;2024-03-22T00:29:02;34.50;;;20.33;;
53618;SDS011;68717;53.040;18.488;2024-03-22T00:29:14;33.70;;;20.55;;
53618;SDS011;68717;53.040;18.488;2024-03-22T00:29:26;34.70;;;20.33;;
53618;SDS011;68717;53.040;18.488;2024-03-22T00:29:38;34.63;;;20.05;;
53618;SDS011;68717;53.040;18.488;2024-03-22T00:29:49;33.13;;;19.52;;
53618;SDS011;68717;53.040;18.488;2024-03-22T00:30:01;32.17;;;19.38;;
53618;SDS011;68717;53.040;18.488;2024-03-22T00:30:15;33.65;;;19.58;;
53618;SDS011;68717;53.040;18.488;2024-03-22T00:30:27;34.53;;;19.95;;
53618;SDS011;68717;53.040;18.488;2024-03-22T00:30:39;34.75;;;20.02;;
53618;SDS011;68717;53.040;18.488;2024-03-22T00:30:51;35.45;;;19.92;;
53618;SDS011;68717;53.040;18.488;2024-03-22T00:31:03;34.15;;;19.02;;
53618;SDS011;68717;53.040;18.488;2024-03-22T00:31:15;32.42;;;19.02;;
53618;SDS011;68717;53.040;18.488;2024-03-22T00:31:27;32.75;;;19.63;;
53618;SDS011;68717;53.040;18.488;2024-03-22T00:31:39;33.45;;;19.88;;
53618;SDS011;68717;53.040;18.488;2024-03-22T00:31:52;33.95;;;19.80;;
53618;SDS011;68717;53.040;18.488;2024-03-22T00:32:04;35.35;;;20.25;;
53618;SDS011;68717;53.040;18.488;2024-03-22T00:32:18;33.90;;;20.13;;
53618;SDS011;68717;53.040;18.488;2024-03-22T00:32:30;33.45;;;19.77;;
53618;SDS011;68717;53.040;18.488;2024-03-22T00:32:42;33.70;;;19.55;;
53618;SDS011;68717;53.040;18.488;2024-03-22T00:32:55;35.90;;;20.33;;
53618;SDS011;68717;53.040;18.488;2024-03-22T00:33:07;34.88;;;20.52;;
53618;SDS011;68717;53.040;18.488;2024-03-22T00:33:19;34.65;;;20.20;;
53618;SDS011;68717;53.040;18.488;2024-03-22T00:33:31;34.50;;;20.08;;
53618;SDS011;68717;53.040;18.488;2024-03-22T00:33:43;33.72;;;20.17;;
53618;SDS011;68717;53.040;18.488;2024-03-22T00:33:55;34.95;;;20.27;;
53618;SDS011;68717;53.040;18.488;2024-03-22T00:34:07;35.22;;;20.40;;
53618;SDS011;68717;53.040;18.488;2024-03-22T00:34:19;36.40;;;20.48;;
53618;SDS011;68717;53.040;18.488;2024-03-22T00:34:31;35.55;;;20.15;;
53618;SDS011;68717;53.040;18.488;2024-03-22T00:34:43;34.75;;;19.42;;
53618;SDS011;68717;53.040;18.488;2024-03-22T00:34:55;34.30;;;19.20;;
53618;SDS011;68717;53.040;18.488;2024-03-22T00:35:07;33.85;;;19.23;;
53618;SDS011;68717;53.040;18.488;2024-03-22T00:35:19;32.65;;;19.33;;
53618;SDS011;68717;53.040;18.488;2024-03-22T00:35:31;32.75;;;19.83;;
53618;SDS011;68717;53.040;18.488;2024-03-22T00:35:44;33.22;;;20.13;;
53618;SDS011;68717;53.040;18.488;2024-03-22T00:35:55;33.92;;;19.88;;
53618;SDS011;68717;53.040;18.488;2024-03-22T00:36:08;33.90;;;19.83;;
53618;SDS011;68717;53.040;18.488;2024-03-22T00:36:20;34.90;;;20.25;;
53618;SDS011;68717;53.040;18.488;2024-03-22T00:36:32;34.35;;;19.70;;
53618;SDS011;68717;53.040;18.488;2024-03-22T00:36:44;34.60;;;19.63;;
53618;SDS011;68717;53.040;18.488;2024-03-22T00:36:57;34.25;;;20.05;;
53618;SDS011;68717;53.040;18.488;2024-03-22T00:37:09;32.85;;;20.30;;
53618;SDS011;68717;53.040;18.488;2024-03-22T00:37:21;34.70;;;20.50;;
53618;SDS011;68717;53.040;18.488;2024-03-22T00:37:33;36.38;;;20.58;;
53618;SDS011;68717;53.040;18.488;2024-03-22T00:37:45;35.45;;;20.38;;
53618;SDS011;68717;53.040;18.488;2024-03-22T00:37:57;34.08;;;20.10;;
53618;SDS011;68717;53.040;18.488;2024-03-22T00:38:09;33.40;;;19.75;;
53618;SDS011;68717;53.040;18.488;2024-03-22T00:38:21;33.25;;;19.70;;
53618;SDS011;68717;53.040;18.488;2024-03-22T00:38:33;34.83;;;20.27;;
53618;SDS011;68717;53.040;18.488;2024-03-22T00:38:44;35.33;;;20.45;;
53618;SDS011;68717;53.040;18.488;2024-03-22T00:38:58;34.92;;;20.00;;
53618;SDS011;68717;53.040;18.488;2024-03-22T00:39:10;35.35;;;19.73;;
53618;SDS011;68717;53.040;18.488;2024-03-22T00:39:22;34.30;;;19.95;;
53618;SDS011;68717;53.040;18.488;2024-03-22T00:39:34;32.72;;;20.17;;
53618;SDS011;68717;53.040;18.488;2024-03-22T00:39:46;33.20;;;19.95;;
53618;SDS011;68717;53.040;18.488;2024-03-22T00:39:58;33.78;;;19.98;;
53618;SDS011;68717;53.040;18.488;2024-03-22T00:40:10;35.63;;;20.15;;
53618;SDS011;68717;53.040;18.488;2024-03-22T00:40:23;35.55;;;20.55;;
53618;SDS011;68717;53.040;18.488;2024-03-22T00:40:35;34.78;;;20.52;;
53618;SDS011;68717;53.040;18.488;2024-03-22T00:40:47;36.25;;;20.55;;
53618;SDS011;68717;53.040;18.488;2024-03-22T00:40:59;37.40;;;20.98;;
53618;SDS011;68717;53.040;18.488;2024-03-22T00:41:11;37.45;;;21.33;;
53618;SDS011;68717;53.040;18.488;2024-03-22T00:41:23;35.85;;;20.58;;
53618;SDS011;68717;53.040;18.488;2024-03-22T00:41:35;35.22;;;19.88;;
53618;SDS011;68717;53.040;18.488;2024-03-22T00:41:46;34.85;;;20.05;;
53618;SDS011;68717;53.040;18.488;2024-03-22T00:41:58;34.92;;;20.50;;
53618;SDS011;68717;53.040;18.488;2024-03-22T00:42:10;33.92;;;20.08;;
53618;SDS011;68717;53.040;18.488;2024-03-22T00:42:22;34.42;;;20.27;;
53618;SDS011;68717;53.040;18.488;2024-03-22T00:42:34;35.22;;;20.48;;
53618;SDS011;68717;53.040;18.488;2024-03-22T00:42:47;36.33;;;21.00;;
53618;SDS011;68717;53.040;18.488;2024-03-22T00:42:59;35.90;;;21.10;;
53618;SDS011;68717;53.040;18.488;2024-03-22T00:43:11;36.42;;;20.65;;
53618;SDS011;68717;53.040;18.488;2024-03-22T00:43:23;36.35;;;20.50;;
53618;SDS011;68717;53.040;18.488;2024-03-22T00:43:34;36.80;;;20.50;;
53618;SDS011;68717;53.040;18.488;2024-03-22T00:43:46;36.22;;;20.48;;
53618;SDS011;68717;53.040;18.488;2024-03-22T00:43:58;35.75;;;20.45;;
53618;SDS011;68717;53.040;18.488;2024-03-22T00:44:10;35.88;;;20.42;;
53618;SDS011;68717;53.040;18.488;2024-03-22T00:44:22;35.38;;;20.52;;
53618;SDS011;68717;53.040;18.488;2024-03-22T00:44:34;34.70;;;20.33;;
53618;SDS011;68717;53.040;18.488;2024-03-22T00:44:46;34.60;;;20.48;;
53618;SDS011;68717;53.040;18.488;2024-03-22T00:44:58;33.63;;;20.20;;
53618;SDS011;68717;53.040;18.488;2024-03-22T00:45:10;32.63;;;20.13;;
53618;SDS011;68717;53.040;18.488;2024-03-22T00:45:24;34.42;;;20.00;;
53618;SDS011;68717;53.040;18.488;2024-03-22T00:45:36;34.67;;;20.05;;
53618;SDS011;68717;53.040;18.488;2024-03-22T00:45:48;34.08;;;20.40;;
53618;SDS011;68717;53.040;18.488;2024-03-22T00:46:00;35.08;;;20.70;;
53618;SDS011;68717;53.040;18.488;2024-03-22T00:46:13;38.58;;;21.15;;
53618;SDS011;68717;53.040;18.488;2024-03-22T00:46:25;39.05;;;21.27;;
53618;SDS011;68717;53.040;18.488;2024-03-22T00:46:37;37.10;;;20.98;;
53618;SDS011;68717;53.040;18.488;2024-03-22T00:46:49;37.28;;;21.50;;
53618;SDS011;68717;53.040;18.488;2024-03-22T00:47:01;37.15;;;21.35;;
53618;SDS011;68717;53.040;18.488;2024-03-22T00:47:14;36.10;;;21.20;;
53618;SDS011;68717;53.040;18.488;2024-03-22T00:47:26;35.65;;;21.50;;
53618;SDS011;68717;53.040;18.488;2024-03-22T00:47:38;35.25;;;21.50;;
53618;SDS011;68717;53.040;18.488;2024-03-22T00:47:49;35.00;;;21.17;;
53618;SDS011;68717;53.040;18.488;2024-03-22T00:48:02;37.00;;;21.17;;
53618;SDS011;68717;53.040;18.488;2024-03-22T00:48:14;36.33;;;20.73;;
53618;SDS011;68717;53.040;18.488;2024-03-22T00:48:26;34.20;;;20.15;;
53618;SDS011;68717;53.040;18.488;2024-03-22T00:48:37;34.38;;;20.55;;
53618;SDS011;68717;53.040;18.488;2024-03-22T00:48:50;36.10;;;21.17;;
53618;SDS011;68717;53.040;18.488;2024-03-22T00:49:02;36.15;;;21.30;;
53618;SDS011;68717;53.040;18.488;2024-03-22T00:49:14;35.45;;;21.20;;
53618;SDS011;68717;53.040;18.488;2024-03-22T00:49:26;35.08;;;21.40;;
53618;SDS011;68717;53.040;18.488;2024-03-22T00:49:38;36.85;;;21.60;;
53618;SDS011;68717;53.040;18.488;2024-03-22T00:49:50;37.35;;;21.65;;
53618;SDS011;68717;53.040;18.488;2024-03-22T00:50:02;37.03;;;21.40;;
53618;SDS011;68717;53.040;18.488;2024-03-22T00:50:14;36.10;;;21.48;;
53618;SDS011;68717;53.040;18.488;2024-03-22T00:50:26;35.35;;;21.85;;
53618;SDS011;68717;53.040;18.488;2024-03-22T00:50:38;35.15;;;21.52;;
53618;SDS011;68717;53.040;18.488;2024-03-22T00:50:50;37.60;;;21.35;;
53618;SDS011;68717;53.040;18.488;2024-03-22T00:51:02;38.17;;;21.17;;
53618;SDS011;68717;53.040;18.488;2024-03-22T00:51:15;38.15;;;21.05;;
53618;SDS011;68717;53.040;18.488;2024-03-22T00:51:27;33.80;;;20.83;;
53618;SDS011;68717;53.040;18.488;2024-03-22T00:51:40;32.75;;;20.80;;
53618;SDS011;68717;53.040;18.488;2024-03-22T00:51:54;34.25;;;20.65;;
53618;SDS011;68717;53.040;18.488;2024-03-22T00:52:07;35.53;;;20.90;;
53618;SDS011;68717;53.040;18.488;2024-03-22T00:52:19;36.20;;;21.02;;
53618;SDS011;68717;53.040;18.488;2024-03-22T00:52:31;35.28;;;20.60;;
53618;SDS011;68717;53.040;18.488;2024-03-22T00:52:43;34.45;;;20.70;;
53618;SDS011;68717;53.040;18.488;2024-03-22T00:52:55;34.70;;;20.88;;
53618;SDS011;68717;53.040;18.488;2024-03-22T00:53:07;35.78;;;21.08;;
53618;SDS011;68717;53.040;18.488;2024-03-22T00:53:21;39.17;;;20.90;;
53618;SDS011;68717;53.040;18.488;2024-03-22T00:53:33;38.50;;;20.90;;
53618;SDS011;68717;53.040;18.488;2024-03-22T00:53:45;40.10;;;21.52;;
53618;SDS011;68717;53.040;18.488;2024-03-22T00:53:57;36.72;;;21.25;;
53618;SDS011;68717;53.040;18.488;2024-03-22T00:54:08;35.70;;;20.90;;
53618;SDS011;68717;53.040;18.488;2024-03-22T00:54:20;36.00;;;20.75;;
53618;SDS011;68717;53.040;18.488;2024-03-22T00:54:32;38.72;;;21.30;;
53618;SDS011;68717;53.040;18.488;2024-03-22T00:54:44;37.83;;;21.50;;
53618;SDS011;68717;53.040;18.488;2024-03-22T00:54:57;35.17;;;20.83;;
53618;SDS011;68717;53.040;18.488;2024-03-22T00:55:09;34.72;;;20.70;;
53618;SDS011;68717;53.040;18.488;2024-03-22T00:55:21;34.90;;;20.95;;
53618;SDS011;68717;53.040;18.488;2024-03-22T00:55:33;34.53;;;21.08;;
53618;SDS011;68717;53.040;18.488;2024-03-22T00:55:45;35.88;;;21.33;;
53618;SDS011;68717;53.040;18.488;2024-03-22T00:56:02;35.05;;;20.77;;
53618;SDS011;68717;53.040;18.488;2024-03-22T00:56:14;34.35;;;20.52;;
53618;SDS011;68717;53.040;18.488;2024-03-22T00:56:26;35.03;;;20.67;;
53618;SDS011;68717;53.040;18.488;2024-03-22T00:56:38;36.65;;;20.25;;
53618;SDS011;68717;53.040;18.488;2024-03-22T00:56:50;37.80;;;20.10;;
53618;SDS011;68717;53.040;18.488;2024-03-22T00:57:01;37.10;;;20.25;;
53618;SDS011;68717;53.040;18.488;2024-03-22T00:57:13;35.53;;;20.55;;
53618;SDS011;68717;53.040;18.488;2024-03-22T00:57:25;33.85;;;20.80;;
53618;SDS011;68717;53.040;18.488;2024-03-22T00:57:37;34.75;;;21.30;;
53618;SDS011;68717;53.040;18.488;2024-03-22T00:57:49;34.78;;;20.83;;
53618;SDS011;68717;53.040;18.488;2024-03-22T00:58:01;36.03;;;20.77;;
53618;SDS011;68717;53.040;18.488;2024-03-22T00:58:14;35.42;;;20.88;;
53618;SDS011;68717;53.040;18.488;2024-03-22T00:58:26;34.28;;;20.77;;
53618;SDS011;68717;53.040;18.488;2024-03-22T00:58:39;33.85;;;20.38;;
53618;SDS011;68717;53.040;18.488;2024-03-22T00:58:51;33.78;;;19.98;;
53618;SDS011;68717;53.040;18.488;2024-03-22T00:59:03;33.25;;;19.77;;
53618;SDS011;68717;53.040;18.488;2024-03-22T00:59:15;32.88;;;19.60;;
53618;SDS011;68717;53.040;18.488;2024-03-22T00:59:28;33.38;;;19.77;;
53618;SDS011;68717;53.040;18.488;2024-03-22T00:59:39;34.97;;;20.08;;
53618;SDS011;68717;53.040;18.488;2024-03-22T00:59:51;35.28;;;20.67;;
53618;SDS011;68717;53.040;18.488;2024-03-22T01:00:04;36.85;;;20.92;;
53618;SDS011;68717;53.040;18.488;2024-03-22T01:00:16;36.97;;;21.40;;
53618;SDS011;68717;53.040;18.488;2024-03-22T01:00:30;36.50;;;21.17;;
53618;SDS011;68717;53.040;18.488;2024-03-22T01:00:42;35.08;;;20.70;;
53618;SDS011;68717;53.040;18.488;2024-03-22T01:00:54;35.45;;;20.95;;
53618;SDS011;68717;53.040;18.488;2024-03-22T01:01:10;35.25;;;20.73;;
53618;SDS011;68717;53.040;18.488;2024-03-22T01:01:22;36.13;;;20.25;;
53618;SDS011;68717;53.040;18.488;2024-03-22T01:01:34;35.80;;;19.85;;
53618;SDS011;68717;53.040;18.488;2024-03-22T01:01:46;35.75;;;20.10;;
53618;SDS011;68717;53.040;18.488;2024-03-22T01:01:58;35.30;;;20.20;;
53618;SDS011;68717;53.040;18.488;2024-03-22T01:02:11;34.20;;;20.35;;
53618;SDS011;68717;53.040;18.488;2024-03-22T01:02:23;32.97;;;20.35;;
53618;SDS011;68717;53.040;18.488;2024-03-22T01:02:35;32.67;;;20.15;;
53618;SDS011;68717;53.040;18.488;2024-03-22T01:02:47;32.00;;;19.80;;
53618;SDS011;68717;53.040;18.488;2024-03-22T01:03:01;30.58;;;19.20;;
53618;SDS011;68717;53.040;18.488;2024-03-22T01:03:13;32.63;;;19.30;;
53618;SDS011;68717;53.040;18.488;2024-03-22T01:03:25;33.53;;;19.73;;
53618;SDS011;68717;53.040;18.488;2024-03-22T01:03:37;31.95;;;19.80;;
53618;SDS011;68717;53.040;18.488;2024-03-22T01:03:49;32.70;;;19.67;;
53618;SDS011;68717;53.040;18.488;2024-03-22T01:04:01;32.03;;;19.02;;
53618;SDS011;68717;53.040;18.488;2024-03-22T01:04:14;32.22;;;18.85;;
53618;SDS011;68717;53.040;18.488;2024-03-22T01:04:26;33.83;;;19.65;;
53618;SDS011;68717;53.040;18.488;2024-03-22T01:04:38;32.95;;;19.70;;
53618;SDS011;68717;53.040;18.488;2024-03-22T01:04:50;32.83;;;20.10;;
53618;SDS011;68717;53.040;18.488;2024-03-22T01:05:02;32.97;;;20.13;;
53618;SDS011;68717;53.040;18.488;2024-03-22T01:05:15;32.10;;;19.85;;
53618;SDS011;68717;53.040;18.488;2024-03-22T01:05:27;32.35;;;20.10;;
53618;SDS011;68717;53.040;18.488;2024-03-22T01:05:39;32.38;;;19.85;;
53618;SDS011;68717;53.040;18.488;2024-03-22T01:05:53;32.92;;;19.63;;
53618;SDS011;68717;53.040;18.488;2024-03-22T01:06:06;33.22;;;19.48;;
53618;SDS011;68717;53.040;18.488;2024-03-22T01:06:18;33.20;;;19.70;;
53618;SDS011;68717;53.040;18.488;2024-03-22T01:06:34;31.33;;;19.25;;
53618;SDS011;68717;53.040;18.488;2024-03-22T01:06:47;30.20;;;19.05;;
53618;SDS011;68717;53.040;18.488;2024-03-22T01:06:58;29.75;;;18.98;;
53618;SDS011;68717;53.040;18.488;2024-03-22T01:07:10;31.15;;;19.10;;
53618;SDS011;68717;53.040;18.488;2024-03-22T01:07:22;32.55;;;19.35;;
53618;SDS011;68717;53.040;18.488;2024-03-22T01:07:35;31.48;;;19.13;;
53618;SDS011;68717;53.040;18.488;2024-03-22T01:07:47;31.33;;;19.38;;
53618;SDS011;68717;53.040;18.488;2024-03-22T01:07:59;32.72;;;19.48;;
53618;SDS011;68717;53.040;18.488;2024-03-22T01:08:11;33.53;;;19.73;;
53618;SDS011;68717;53.040;18.488;2024-03-22T01:08:23;33.05;;;19.38;;
53618;SDS011;68717;53.040;18.488;2024-03-22T01:08:35;33.70;;;19.50;;
53618;SDS011;68717;53.040;18.488;2024-03-22T01:08:47;33.72;;;19.55;;
53618;SDS011;68717;53.040;18.488;2024-03-22T01:08:59;32.70;;;19.13;;
53618;SDS011;68717;53.040;18.488;2024-03-22T01:09:11;32.13;;;19.13;;
53618;SDS011;68717;53.040;18.488;2024-03-22T01:09:24;32.03;;;19.35;;
53618;SDS011;68717;53.040;18.488;2024-03-22T01:09:36;33.10;;;19.55;;
53618;SDS011;68717;53.040;18.488;2024-03-22T01:09:48;33.45;;;19.52;;
53618;SDS011;68717;53.040;18.488;2024-03-22T01:10:00;32.17;;;19.15;;
53618;SDS011;68717;53.040;18.488;2024-03-22T01:10:12;31.40;;;19.17;;
53618;SDS011;68717;53.040;18.488;2024-03-22T01:10:24;31.88;;;19.17;;
53618;SDS011;68717;53.040;18.488;2024-03-22T01:10:36;31.90;;;19.15;;
53618;SDS011;68717;53.040;18.488;2024-03-22T01:10:48;31.25;;;19.00;;
53618;SDS011;68717;53.040;18.488;2024-03-22T01:11:00;33.28;;;18.92;;